sensor_id;sensor_type;location;lat;lon;timestamp;P1;durP1;ratioP1;P2;durP2;ratioP2
58784;SDS011;44557;51.862;19.378;2023-04-30T00:01:07;30.10;;;25.30;;
58784;SDS011;44557;51.862;19.378;2023-04-30T00:03:08;26.20;;;23.00;;
58784;SDS011;44557;51.862;19.378;2023-04-30T00:05:09;25.20;;;21.30;;
58784;SDS011;44557;51.862;19.378;2023-04-30T00:07:10;22.90;;;20.40;;
58784;SDS011;44557;51.862;19.378;2023-04-30T00:09:11;19.90;;;17.60;;
58784;SDS011;44557;51.862;19.378;2023-04-30T00:11:12;21.30;;;18.50;;
58784;SDS011;44557;51.862;19.378;2023-04-30T00:13:13;21.40;;;18.70;;
58784;SDS011;44557;51.862;19.378;2023-04-30T00:15:14;21.50;;;18.60;;
58784;SDS011;44557;51.862;19.378;2023-04-30T00:17:15;20.90;;;17.90;;
58784;SDS011;44557;51.862;19.378;2023-04-30T00:19:16;22.20;;;18.10;;
58784;SDS011;44557;51.862;19.378;2023-04-30T00:21:17;19.30;;;16.50;;
58784;SDS011;44557;51.862;19.378;2023-04-30T00:23:18;22.30;;;19.90;;
58784;SDS011;44557;51.862;19.378;2023-04-30T00:25:19;23.00;;;18.50;;
58784;SDS011;44557;51.862;19.378;2023-04-30T00:27:20;21.70;;;17.50;;
58784;SDS011;44557;51.862;19.378;2023-04-30T00:29:21;23.20;;;20.30;;
58784;SDS011;44557;51.862;19.378;2023-04-30T00:31:22;24.90;;;19.80;;
58784;SDS011;44557;51.862;19.378;2023-04-30T00:33:23;22.80;;;17.90;;
58784;SDS011;44557;51.862;19.378;2023-04-30T00:35:24;23.80;;;19.50;;
58784;SDS011;44557;51.862;19.378;2023-04-30T00:37:25;23.20;;;18.20;;
58784;SDS011;44557;51.862;19.378;2023-04-30T00:39:26;21.20;;;18.00;;
58784;SDS011;44557;51.862;19.378;2023-04-30T00:41:27;21.70;;;17.10;;
58784;SDS011;44557;51.862;19.378;2023-04-30T00:43:29;18.90;;;16.50;;
58784;SDS011;44557;51.862;19.378;2023-04-30T00:45:31;19.50;;;16.40;;
58784;SDS011;44557;51.862;19.378;2023-04-30T00:47:31;22.90;;;18.30;;
58784;SDS011;44557;51.862;19.378;2023-04-30T00:49:32;20.10;;;17.20;;
58784;SDS011;44557;51.862;19.378;2023-04-30T00:51:34;22.50;;;18.50;;
58784;SDS011;44557;51.862;19.378;2023-04-30T00:53:36;20.60;;;16.50;;
58784;SDS011;44557;51.862;19.378;2023-04-30T00:55:39;19.20;;;17.10;;
58784;SDS011;44557;51.862;19.378;2023-04-30T00:57:41;20.30;;;17.30;;
58784;SDS011;44557;51.862;19.378;2023-04-30T00:59:41;19.00;;;15.70;;
58784;SDS011;44557;51.862;19.378;2023-04-30T01:01:42;20.40;;;16.20;;
58784;SDS011;44557;51.862;19.378;2023-04-30T01:03:43;16.10;;;14.40;;
58784;SDS011;44557;51.862;19.378;2023-04-30T01:05:45;17.70;;;14.80;;
58784;SDS011;44557;51.862;19.378;2023-04-30T01:07:46;20.00;;;15.00;;
58784;SDS011;44557;51.862;19.378;2023-04-30T01:09:47;17.40;;;13.50;;
58784;SDS011;44557;51.862;19.378;2023-04-30T01:17:05;13.70;;;12.20;;
58784;SDS011;44557;51.862;19.378;2023-04-30T01:21:37;16.60;;;12.10;;
58784;SDS011;44557;51.862;19.378;2023-04-30T01:23:47;15.60;;;13.70;;
58784;SDS011;44557;51.862;19.378;2023-04-30T01:26:13;13.00;;;11.10;;
58784;SDS011;44557;51.862;19.378;2023-04-30T01:28:20;15.60;;;11.90;;
58784;SDS011;44557;51.862;19.378;2023-04-30T01:30:24;13.80;;;11.50;;
58784;SDS011;44557;51.862;19.378;2023-04-30T01:32:26;14.60;;;11.60;;
58784;SDS011;44557;51.862;19.378;2023-04-30T01:34:27;14.40;;;11.40;;
58784;SDS011;44557;51.862;19.378;2023-04-30T01:39:14;13.10;;;11.70;;
58784;SDS011;44557;51.862;19.378;2023-04-30T01:41:32;15.10;;;11.50;;
58784;SDS011;44557;51.862;19.378;2023-04-30T01:48:16;14.70;;;10.60;;
58784;SDS011;44557;51.862;19.378;2023-04-30T01:50:52;13.60;;;10.40;;
58784;SDS011;44557;51.862;19.378;2023-04-30T01:53:01;15.10;;;12.00;;
58784;SDS011;44557;51.862;19.378;2023-04-30T01:55:26;13.30;;;10.70;;
58784;SDS011;44557;51.862;19.378;2023-04-30T01:57:42;14.80;;;11.00;;
58784;SDS011;44557;51.862;19.378;2023-04-30T01:59:50;13.10;;;10.30;;
58784;SDS011;44557;51.862;19.378;2023-04-30T02:01:52;14.90;;;11.40;;
58784;SDS011;44557;51.862;19.378;2023-04-30T02:03:53;15.40;;;11.60;;
58784;SDS011;44557;51.862;19.378;2023-04-30T02:05:54;14.30;;;11.20;;
58784;SDS011;44557;51.862;19.378;2023-04-30T02:07:55;15.90;;;10.80;;
58784;SDS011;44557;51.862;19.378;2023-04-30T02:09:56;14.20;;;10.80;;
58784;SDS011;44557;51.862;19.378;2023-04-30T02:11:57;16.40;;;10.70;;
58784;SDS011;44557;51.862;19.378;2023-04-30T02:13:58;14.90;;;11.00;;
58784;SDS011;44557;51.862;19.378;2023-04-30T02:15:58;14.90;;;11.00;;
58784;SDS011;44557;51.862;19.378;2023-04-30T02:17:59;16.30;;;11.50;;
58784;SDS011;44557;51.862;19.378;2023-04-30T02:20:00;14.00;;;10.80;;
58784;SDS011;44557;51.862;19.378;2023-04-30T02:22:01;17.20;;;11.40;;
58784;SDS011;44557;51.862;19.378;2023-04-30T02:24:02;14.90;;;11.00;;
58784;SDS011;44557;51.862;19.378;2023-04-30T02:26:03;14.50;;;10.60;;
58784;SDS011;44557;51.862;19.378;2023-04-30T02:28:04;14.90;;;11.00;;
58784;SDS011;44557;51.862;19.378;2023-04-30T02:30:05;13.80;;;10.60;;
58784;SDS011;44557;51.862;19.378;2023-04-30T02:32:06;15.00;;;10.90;;
58784;SDS011;44557;51.862;19.378;2023-04-30T02:34:07;16.30;;;11.10;;
58784;SDS011;44557;51.862;19.378;2023-04-30T02:36:08;12.90;;;10.30;;
58784;SDS011;44557;51.862;19.378;2023-04-30T02:38:09;15.10;;;11.20;;
58784;SDS011;44557;51.862;19.378;2023-04-30T02:40:10;15.10;;;10.80;;
58784;SDS011;44557;51.862;19.378;2023-04-30T02:42:11;15.60;;;11.50;;
58784;SDS011;44557;51.862;19.378;2023-04-30T02:44:12;16.00;;;11.60;;
58784;SDS011;44557;51.862;19.378;2023-04-30T02:46:13;13.30;;;10.50;;
58784;SDS011;44557;51.862;19.378;2023-04-30T02:48:14;14.20;;;11.00;;
58784;SDS011;44557;51.862;19.378;2023-04-30T02:50:15;17.20;;;11.70;;
58784;SDS011;44557;51.862;19.378;2023-04-30T02:52:16;15.60;;;11.00;;
58784;SDS011;44557;51.862;19.378;2023-04-30T02:54:17;15.00;;;11.70;;
58784;SDS011;44557;51.862;19.378;2023-04-30T02:56:18;14.20;;;11.20;;
58784;SDS011;44557;51.862;19.378;2023-04-30T02:58:19;13.70;;;10.60;;
58784;SDS011;44557;51.862;19.378;2023-04-30T03:00:20;13.20;;;11.00;;
58784;SDS011;44557;51.862;19.378;2023-04-30T03:02:21;15.70;;;10.80;;
58784;SDS011;44557;51.862;19.378;2023-04-30T03:04:23;13.50;;;10.80;;
58784;SDS011;44557;51.862;19.378;2023-04-30T03:06:24;16.50;;;11.10;;
58784;SDS011;44557;51.862;19.378;2023-04-30T03:08:25;15.30;;;11.20;;
58784;SDS011;44557;51.862;19.378;2023-04-30T03:10:26;14.10;;;11.50;;
58784;SDS011;44557;51.862;19.378;2023-04-30T03:12:27;14.70;;;11.10;;
58784;SDS011;44557;51.862;19.378;2023-04-30T03:14:28;15.40;;;10.90;;
58784;SDS011;44557;51.862;19.378;2023-04-30T03:16:29;13.90;;;11.30;;
58784;SDS011;44557;51.862;19.378;2023-04-30T03:18:31;13.20;;;10.90;;
58784;SDS011;44557;51.862;19.378;2023-04-30T03:20:32;14.60;;;10.10;;
58784;SDS011;44557;51.862;19.378;2023-04-30T03:22:33;15.30;;;10.60;;
58784;SDS011;44557;51.862;19.378;2023-04-30T03:24:34;14.10;;;11.00;;
58784;SDS011;44557;51.862;19.378;2023-04-30T03:26:34;14.50;;;10.80;;
58784;SDS011;44557;51.862;19.378;2023-04-30T03:28:35;15.70;;;10.50;;
58784;SDS011;44557;51.862;19.378;2023-04-30T03:30:36;12.80;;;10.10;;
58784;SDS011;44557;51.862;19.378;2023-04-30T03:32:37;13.60;;;10.20;;
58784;SDS011;44557;51.862;19.378;2023-04-30T03:34:38;13.20;;;10.40;;
58784;SDS011;44557;51.862;19.378;2023-04-30T03:36:39;13.50;;;9.50;;
58784;SDS011;44557;51.862;19.378;2023-04-30T03:38:40;12.30;;;10.10;;
58784;SDS011;44557;51.862;19.378;2023-04-30T03:40:42;15.30;;;10.00;;
58784;SDS011;44557;51.862;19.378;2023-04-30T03:42:43;13.30;;;9.60;;
58784;SDS011;44557;51.862;19.378;2023-04-30T03:44:44;13.80;;;9.40;;
58784;SDS011;44557;51.862;19.378;2023-04-30T03:46:45;15.90;;;9.90;;
58784;SDS011;44557;51.862;19.378;2023-04-30T03:48:46;13.90;;;10.50;;
58784;SDS011;44557;51.862;19.378;2023-04-30T03:50:47;15.40;;;9.70;;
58784;SDS011;44557;51.862;19.378;2023-04-30T03:52:48;12.60;;;9.50;;
58784;SDS011;44557;51.862;19.378;2023-04-30T03:54:49;13.80;;;9.40;;
58784;SDS011;44557;51.862;19.378;2023-04-30T03:56:49;14.00;;;9.70;;
58784;SDS011;44557;51.862;19.378;2023-04-30T03:58:50;14.40;;;9.90;;
58784;SDS011;44557;51.862;19.378;2023-04-30T04:00:51;14.70;;;9.50;;
58784;SDS011;44557;51.862;19.378;2023-04-30T04:02:52;13.10;;;9.20;;
58784;SDS011;44557;51.862;19.378;2023-04-30T04:04:54;13.40;;;9.30;;
58784;SDS011;44557;51.862;19.378;2023-04-30T04:06:55;12.40;;;9.50;;
58784;SDS011;44557;51.862;19.378;2023-04-30T04:08:56;16.20;;;10.00;;
58784;SDS011;44557;51.862;19.378;2023-04-30T04:10:57;14.20;;;9.80;;
58784;SDS011;44557;51.862;19.378;2023-04-30T04:12:58;12.70;;;9.30;;
58784;SDS011;44557;51.862;19.378;2023-04-30T04:14:58;13.10;;;9.10;;
58784;SDS011;44557;51.862;19.378;2023-04-30T04:17:00;14.00;;;9.40;;
58784;SDS011;44557;51.862;19.378;2023-04-30T04:19:01;13.70;;;9.90;;
58784;SDS011;44557;51.862;19.378;2023-04-30T04:21:02;15.10;;;9.80;;
58784;SDS011;44557;51.862;19.378;2023-04-30T04:23:03;13.60;;;9.70;;
58784;SDS011;44557;51.862;19.378;2023-04-30T04:25:05;14.10;;;10.10;;
58784;SDS011;44557;51.862;19.378;2023-04-30T04:27:06;16.10;;;10.00;;
58784;SDS011;44557;51.862;19.378;2023-04-30T04:29:07;13.80;;;9.40;;
58784;SDS011;44557;51.862;19.378;2023-04-30T04:31:09;13.20;;;9.80;;
58784;SDS011;44557;51.862;19.378;2023-04-30T04:33:11;13.90;;;9.90;;
58784;SDS011;44557;51.862;19.378;2023-04-30T04:35:12;12.40;;;9.70;;
58784;SDS011;44557;51.862;19.378;2023-04-30T04:37:16;13.00;;;9.60;;
58784;SDS011;44557;51.862;19.378;2023-04-30T04:39:17;15.50;;;10.30;;
58784;SDS011;44557;51.862;19.378;2023-04-30T04:41:18;13.40;;;10.20;;
58784;SDS011;44557;51.862;19.378;2023-04-30T04:43:19;16.80;;;10.00;;
58784;SDS011;44557;51.862;19.378;2023-04-30T04:45:21;17.00;;;9.70;;
58784;SDS011;44557;51.862;19.378;2023-04-30T04:47:23;14.30;;;10.50;;
58784;SDS011;44557;51.862;19.378;2023-04-30T04:49:24;12.90;;;9.30;;
58784;SDS011;44557;51.862;19.378;2023-04-30T04:51:25;15.10;;;9.30;;
58784;SDS011;44557;51.862;19.378;2023-04-30T04:53:26;14.70;;;9.40;;
58784;SDS011;44557;51.862;19.378;2023-04-30T04:55:27;12.90;;;9.60;;
58784;SDS011;44557;51.862;19.378;2023-04-30T04:57:28;13.10;;;9.70;;
58784;SDS011;44557;51.862;19.378;2023-04-30T04:59:29;16.00;;;8.90;;
58784;SDS011;44557;51.862;19.378;2023-04-30T05:01:29;12.10;;;8.70;;
58784;SDS011;44557;51.862;19.378;2023-04-30T05:03:31;14.90;;;9.20;;
58784;SDS011;44557;51.862;19.378;2023-04-30T05:05:33;14.50;;;9.20;;
58784;SDS011;44557;51.862;19.378;2023-04-30T05:07:34;14.30;;;8.80;;
58784;SDS011;44557;51.862;19.378;2023-04-30T05:09:35;15.50;;;9.10;;
58784;SDS011;44557;51.862;19.378;2023-04-30T05:11:36;13.10;;;8.50;;
58784;SDS011;44557;51.862;19.378;2023-04-30T05:13:37;13.10;;;8.30;;
58784;SDS011;44557;51.862;19.378;2023-04-30T05:15:38;13.10;;;8.50;;
58784;SDS011;44557;51.862;19.378;2023-04-30T05:17:39;13.40;;;7.90;;
58784;SDS011;44557;51.862;19.378;2023-04-30T05:19:40;11.60;;;8.00;;
58784;SDS011;44557;51.862;19.378;2023-04-30T05:21:41;12.20;;;8.50;;
58784;SDS011;44557;51.862;19.378;2023-04-30T05:23:42;13.70;;;7.70;;
58784;SDS011;44557;51.862;19.378;2023-04-30T05:25:44;14.70;;;9.20;;
58784;SDS011;44557;51.862;19.378;2023-04-30T05:27:45;12.90;;;8.50;;
58784;SDS011;44557;51.862;19.378;2023-04-30T05:29:46;13.30;;;9.20;;
58784;SDS011;44557;51.862;19.378;2023-04-30T05:31:47;13.40;;;8.90;;
58784;SDS011;44557;51.862;19.378;2023-04-30T05:33:48;14.60;;;9.00;;
58784;SDS011;44557;51.862;19.378;2023-04-30T05:35:49;13.40;;;7.60;;
58784;SDS011;44557;51.862;19.378;2023-04-30T05:37:50;15.60;;;8.20;;
58784;SDS011;44557;51.862;19.378;2023-04-30T05:39:51;13.10;;;7.80;;
58784;SDS011;44557;51.862;19.378;2023-04-30T05:41:53;11.80;;;7.90;;
58784;SDS011;44557;51.862;19.378;2023-04-30T05:43:54;11.90;;;7.80;;
58784;SDS011;44557;51.862;19.378;2023-04-30T05:45:54;11.90;;;7.80;;
58784;SDS011;44557;51.862;19.378;2023-04-30T05:47:55;11.40;;;7.20;;
58784;SDS011;44557;51.862;19.378;2023-04-30T05:49:56;10.90;;;7.20;;
58784;SDS011;44557;51.862;19.378;2023-04-30T05:51:57;10.60;;;7.10;;
58784;SDS011;44557;51.862;19.378;2023-04-30T05:53:58;11.10;;;6.60;;
58784;SDS011;44557;51.862;19.378;2023-04-30T05:55:59;13.40;;;7.40;;
58784;SDS011;44557;51.862;19.378;2023-04-30T05:58:00;11.20;;;6.40;;
58784;SDS011;44557;51.862;19.378;2023-04-30T06:00:01;10.50;;;6.60;;
58784;SDS011;44557;51.862;19.378;2023-04-30T06:02:06;9.10;;;6.10;;
58784;SDS011;44557;51.862;19.378;2023-04-30T06:04:07;11.70;;;6.00;;
58784;SDS011;44557;51.862;19.378;2023-04-30T06:06:08;10.70;;;5.40;;
58784;SDS011;44557;51.862;19.378;2023-04-30T06:08:09;10.30;;;5.30;;
58784;SDS011;44557;51.862;19.378;2023-04-30T06:10:10;9.90;;;5.80;;
58784;SDS011;44557;51.862;19.378;2023-04-30T06:12:12;9.60;;;5.40;;
58784;SDS011;44557;51.862;19.378;2023-04-30T06:14:13;9.50;;;5.20;;
58784;SDS011;44557;51.862;19.378;2023-04-30T06:16:14;9.80;;;5.20;;
58784;SDS011;44557;51.862;19.378;2023-04-30T06:18:15;11.00;;;5.00;;
58784;SDS011;44557;51.862;19.378;2023-04-30T06:20:16;10.60;;;5.60;;
58784;SDS011;44557;51.862;19.378;2023-04-30T06:22:17;9.40;;;4.90;;
58784;SDS011;44557;51.862;19.378;2023-04-30T06:24:17;11.90;;;6.10;;
58784;SDS011;44557;51.862;19.378;2023-04-30T06:26:18;9.20;;;4.90;;
58784;SDS011;44557;51.862;19.378;2023-04-30T06:28:19;10.70;;;5.50;;
58784;SDS011;44557;51.862;19.378;2023-04-30T06:30:20;9.80;;;5.50;;
58784;SDS011;44557;51.862;19.378;2023-04-30T06:32:21;9.70;;;4.90;;
58784;SDS011;44557;51.862;19.378;2023-04-30T06:34:22;10.50;;;5.40;;
58784;SDS011;44557;51.862;19.378;2023-04-30T06:36:23;9.20;;;4.50;;
58784;SDS011;44557;51.862;19.378;2023-04-30T06:38:24;9.80;;;5.00;;
58784;SDS011;44557;51.862;19.378;2023-04-30T06:40:25;10.20;;;5.00;;
58784;SDS011;44557;51.862;19.378;2023-04-30T06:42:26;8.70;;;4.70;;
58784;SDS011;44557;51.862;19.378;2023-04-30T06:44:27;8.80;;;4.60;;
58784;SDS011;44557;51.862;19.378;2023-04-30T06:46:28;10.20;;;4.50;;
58784;SDS011;44557;51.862;19.378;2023-04-30T06:48:29;10.20;;;4.50;;
58784;SDS011;44557;51.862;19.378;2023-04-30T06:50:30;8.10;;;4.60;;
58784;SDS011;44557;51.862;19.378;2023-04-30T06:52:31;7.70;;;4.30;;
58784;SDS011;44557;51.862;19.378;2023-04-30T06:54:32;9.70;;;4.70;;
58784;SDS011;44557;51.862;19.378;2023-04-30T06:56:33;9.00;;;4.20;;
58784;SDS011;44557;51.862;19.378;2023-04-30T06:58:34;8.90;;;4.50;;
58784;SDS011;44557;51.862;19.378;2023-04-30T07:00:35;11.10;;;4.80;;
58784;SDS011;44557;51.862;19.378;2023-04-30T07:02:36;9.50;;;5.00;;
58784;SDS011;44557;51.862;19.378;2023-04-30T07:04:37;8.60;;;4.60;;
58784;SDS011;44557;51.862;19.378;2023-04-30T07:06:38;10.80;;;4.40;;
58784;SDS011;44557;51.862;19.378;2023-04-30T07:08:38;8.40;;;4.40;;
58784;SDS011;44557;51.862;19.378;2023-04-30T07:10:40;11.60;;;4.40;;
58784;SDS011;44557;51.862;19.378;2023-04-30T07:12:41;8.90;;;4.20;;
58784;SDS011;44557;51.862;19.378;2023-04-30T07:14:42;8.40;;;4.00;;
58784;SDS011;44557;51.862;19.378;2023-04-30T07:16:44;8.80;;;4.40;;
58784;SDS011;44557;51.862;19.378;2023-04-30T07:18:45;7.50;;;3.30;;
58784;SDS011;44557;51.862;19.378;2023-04-30T07:20:48;8.30;;;3.40;;
58784;SDS011;44557;51.862;19.378;2023-04-30T07:22:49;7.30;;;3.80;;
58784;SDS011;44557;51.862;19.378;2023-04-30T07:24:50;8.30;;;4.40;;
58784;SDS011;44557;51.862;19.378;2023-04-30T07:26:51;7.50;;;3.40;;
58784;SDS011;44557;51.862;19.378;2023-04-30T07:28:52;8.10;;;3.80;;
58784;SDS011;44557;51.862;19.378;2023-04-30T07:30:53;9.20;;;3.20;;
58784;SDS011;44557;51.862;19.378;2023-04-30T07:32:53;8.30;;;3.70;;
58784;SDS011;44557;51.862;19.378;2023-04-30T07:34:55;8.10;;;3.80;;
58784;SDS011;44557;51.862;19.378;2023-04-30T07:36:57;5.80;;;2.90;;
58784;SDS011;44557;51.862;19.378;2023-04-30T07:38:58;8.60;;;3.50;;
58784;SDS011;44557;51.862;19.378;2023-04-30T07:40:59;6.40;;;3.00;;
58784;SDS011;44557;51.862;19.378;2023-04-30T07:43:01;7.40;;;3.30;;
58784;SDS011;44557;51.862;19.378;2023-04-30T07:45:03;6.70;;;2.70;;
58784;SDS011;44557;51.862;19.378;2023-04-30T07:47:04;9.00;;;3.40;;
58784;SDS011;44557;51.862;19.378;2023-04-30T07:49:05;9.30;;;3.60;;
58784;SDS011;44557;51.862;19.378;2023-04-30T07:51:06;6.60;;;2.80;;
58784;SDS011;44557;51.862;19.378;2023-04-30T07:53:07;7.50;;;3.40;;
58784;SDS011;44557;51.862;19.378;2023-04-30T07:55:09;8.70;;;3.60;;
58784;SDS011;44557;51.862;19.378;2023-04-30T07:57:10;7.40;;;3.30;;
58784;SDS011;44557;51.862;19.378;2023-04-30T07:59:12;8.50;;;3.30;;
58784;SDS011;44557;51.862;19.378;2023-04-30T08:01:14;8.40;;;3.30;;
58784;SDS011;44557;51.862;19.378;2023-04-30T08:03:15;8.20;;;3.10;;
58784;SDS011;44557;51.862;19.378;2023-04-30T08:05:16;9.30;;;3.50;;
58784;SDS011;44557;51.862;19.378;2023-04-30T08:07:16;7.80;;;3.20;;
58784;SDS011;44557;51.862;19.378;2023-04-30T08:09:17;8.60;;;3.40;;
58784;SDS011;44557;51.862;19.378;2023-04-30T08:11:18;9.30;;;3.70;;
58784;SDS011;44557;51.862;19.378;2023-04-30T08:13:20;8.80;;;3.50;;
58784;SDS011;44557;51.862;19.378;2023-04-30T08:15:21;7.90;;;3.30;;
58784;SDS011;44557;51.862;19.378;2023-04-30T08:17:22;7.70;;;3.40;;
58784;SDS011;44557;51.862;19.378;2023-04-30T08:19:25;8.30;;;3.70;;
58784;SDS011;44557;51.862;19.378;2023-04-30T08:21:26;9.30;;;3.40;;
58784;SDS011;44557;51.862;19.378;2023-04-30T08:23:27;6.60;;;2.70;;
58784;SDS011;44557;51.862;19.378;2023-04-30T08:25:28;18.10;;;10.80;;
58784;SDS011;44557;51.862;19.378;2023-04-30T08:27:31;6.40;;;2.90;;
58784;SDS011;44557;51.862;19.378;2023-04-30T08:29:32;6.70;;;3.00;;
58784;SDS011;44557;51.862;19.378;2023-04-30T08:31:33;5.90;;;2.70;;
58784;SDS011;44557;51.862;19.378;2023-04-30T08:33:34;5.20;;;2.30;;
58784;SDS011;44557;51.862;19.378;2023-04-30T08:35:35;7.30;;;3.00;;
58784;SDS011;44557;51.862;19.378;2023-04-30T08:37:37;9.20;;;3.50;;
58784;SDS011;44557;51.862;19.378;2023-04-30T08:39:37;5.20;;;2.40;;
58784;SDS011;44557;51.862;19.378;2023-04-30T08:41:38;6.20;;;2.40;;
58784;SDS011;44557;51.862;19.378;2023-04-30T08:43:42;6.00;;;2.50;;
58784;SDS011;44557;51.862;19.378;2023-04-30T08:45:44;7.40;;;2.90;;
58784;SDS011;44557;51.862;19.378;2023-04-30T08:47:45;5.30;;;2.60;;
58784;SDS011;44557;51.862;19.378;2023-04-30T08:49:48;7.10;;;2.80;;
58784;SDS011;44557;51.862;19.378;2023-04-30T08:51:49;6.20;;;2.50;;
58784;SDS011;44557;51.862;19.378;2023-04-30T08:53:51;6.70;;;2.30;;
58784;SDS011;44557;51.862;19.378;2023-04-30T08:55:54;4.10;;;1.90;;
58784;SDS011;44557;51.862;19.378;2023-04-30T08:57:55;8.30;;;2.40;;
58784;SDS011;44557;51.862;19.378;2023-04-30T08:59:56;8.00;;;2.70;;
58784;SDS011;44557;51.862;19.378;2023-04-30T09:01:58;8.20;;;3.70;;
58784;SDS011;44557;51.862;19.378;2023-04-30T09:04:02;6.30;;;2.40;;
58784;SDS011;44557;51.862;19.378;2023-04-30T09:06:03;6.40;;;2.70;;
58784;SDS011;44557;51.862;19.378;2023-04-30T09:08:05;5.60;;;2.10;;
58784;SDS011;44557;51.862;19.378;2023-04-30T09:12:15;4.40;;;2.20;;
58784;SDS011;44557;51.862;19.378;2023-04-30T09:14:22;5.80;;;2.00;;
58784;SDS011;44557;51.862;19.378;2023-04-30T09:16:26;5.70;;;2.00;;
58784;SDS011;44557;51.862;19.378;2023-04-30T09:18:37;6.30;;;2.40;;
58784;SDS011;44557;51.862;19.378;2023-04-30T09:21:00;6.10;;;2.80;;
58784;SDS011;44557;51.862;19.378;2023-04-30T09:23:05;7.00;;;2.00;;
58784;SDS011;44557;51.862;19.378;2023-04-30T09:25:08;5.90;;;2.20;;
58784;SDS011;44557;51.862;19.378;2023-04-30T09:27:16;3.80;;;1.70;;
58784;SDS011;44557;51.862;19.378;2023-04-30T09:29:18;5.30;;;1.90;;
58784;SDS011;44557;51.862;19.378;2023-04-30T09:31:19;8.80;;;2.60;;
58784;SDS011;44557;51.862;19.378;2023-04-30T09:33:21;5.40;;;2.20;;
58784;SDS011;44557;51.862;19.378;2023-04-30T09:35:32;4.70;;;1.90;;
58784;SDS011;44557;51.862;19.378;2023-04-30T09:37:37;5.30;;;2.20;;
58784;SDS011;44557;51.862;19.378;2023-04-30T09:39:52;7.20;;;2.80;;
58784;SDS011;44557;51.862;19.378;2023-04-30T09:42:05;5.10;;;2.10;;
58784;SDS011;44557;51.862;19.378;2023-04-30T09:44:24;4.10;;;2.00;;
58784;SDS011;44557;51.862;19.378;2023-04-30T09:46:30;6.20;;;2.00;;
58784;SDS011;44557;51.862;19.378;2023-04-30T09:48:34;4.60;;;1.90;;
58784;SDS011;44557;51.862;19.378;2023-04-30T09:50:38;5.00;;;2.20;;
58784;SDS011;44557;51.862;19.378;2023-04-30T09:52:46;5.40;;;2.20;;
58784;SDS011;44557;51.862;19.378;2023-04-30T09:54:52;3.90;;;1.70;;
58784;SDS011;44557;51.862;19.378;2023-04-30T09:56:54;7.10;;;1.80;;
58784;SDS011;44557;51.862;19.378;2023-04-30T09:58:57;5.90;;;1.70;;
58784;SDS011;44557;51.862;19.378;2023-04-30T10:01:01;2.90;;;1.70;;
58784;SDS011;44557;51.862;19.378;2023-04-30T10:03:12;5.60;;;2.00;;
58784;SDS011;44557;51.862;19.378;2023-04-30T10:05:14;5.40;;;2.00;;
58784;SDS011;44557;51.862;19.378;2023-04-30T10:07:16;5.30;;;2.40;;
58784;SDS011;44557;51.862;19.378;2023-04-30T10:09:20;6.20;;;2.20;;
58784;SDS011;44557;51.862;19.378;2023-04-30T10:11:22;4.90;;;1.60;;
58784;SDS011;44557;51.862;19.378;2023-04-30T10:13:28;4.10;;;1.90;;
58784;SDS011;44557;51.862;19.378;2023-04-30T10:15:35;4.40;;;1.90;;
58784;SDS011;44557;51.862;19.378;2023-04-30T10:17:39;4.20;;;1.70;;
58784;SDS011;44557;51.862;19.378;2023-04-30T10:19:45;6.40;;;1.70;;
58784;SDS011;44557;51.862;19.378;2023-04-30T10:21:49;3.90;;;1.50;;
58784;SDS011;44557;51.862;19.378;2023-04-30T10:23:50;5.10;;;2.10;;
58784;SDS011;44557;51.862;19.378;2023-04-30T10:25:53;5.30;;;1.90;;
58784;SDS011;44557;51.862;19.378;2023-04-30T10:27:57;2.80;;;1.60;;
58784;SDS011;44557;51.862;19.378;2023-04-30T10:29:58;3.10;;;1.70;;
58784;SDS011;44557;51.862;19.378;2023-04-30T10:31:59;8.20;;;2.90;;
58784;SDS011;44557;51.862;19.378;2023-04-30T10:36:17;4.00;;;1.50;;
58784;SDS011;44557;51.862;19.378;2023-04-30T10:38:26;5.30;;;1.70;;
58784;SDS011;44557;51.862;19.378;2023-04-30T10:40:34;5.00;;;1.60;;
58784;SDS011;44557;51.862;19.378;2023-04-30T10:42:36;2.90;;;1.50;;
58784;SDS011;44557;51.862;19.378;2023-04-30T10:44:38;4.80;;;1.60;;
58784;SDS011;44557;51.862;19.378;2023-04-30T10:46:39;6.60;;;1.80;;
58784;SDS011;44557;51.862;19.378;2023-04-30T10:48:40;4.10;;;1.80;;
58784;SDS011;44557;51.862;19.378;2023-04-30T10:50:42;4.80;;;1.90;;
58784;SDS011;44557;51.862;19.378;2023-04-30T10:53:00;4.30;;;2.10;;
58784;SDS011;44557;51.862;19.378;2023-04-30T10:55:03;3.00;;;1.50;;
58784;SDS011;44557;51.862;19.378;2023-04-30T10:59:17;10.20;;;5.40;;
58784;SDS011;44557;51.862;19.378;2023-04-30T11:01:19;5.50;;;2.20;;
58784;SDS011;44557;51.862;19.378;2023-04-30T11:03:21;6.70;;;2.50;;
58784;SDS011;44557;51.862;19.378;2023-04-30T11:05:43;7.50;;;3.20;;
58784;SDS011;44557;51.862;19.378;2023-04-30T11:07:47;7.70;;;2.30;;
58784;SDS011;44557;51.862;19.378;2023-04-30T11:09:49;5.40;;;2.00;;
58784;SDS011;44557;51.862;19.378;2023-04-30T11:12:03;5.00;;;1.90;;
58784;SDS011;44557;51.862;19.378;2023-04-30T11:14:09;7.60;;;1.90;;
58784;SDS011;44557;51.862;19.378;2023-04-30T11:16:11;4.00;;;1.50;;
58784;SDS011;44557;51.862;19.378;2023-04-30T11:18:12;5.10;;;1.60;;
58784;SDS011;44557;51.862;19.378;2023-04-30T11:20:23;3.80;;;1.40;;
58784;SDS011;44557;51.862;19.378;2023-04-30T11:22:25;7.00;;;1.80;;
58784;SDS011;44557;51.862;19.378;2023-04-30T11:27:02;5.30;;;2.00;;
58784;SDS011;44557;51.862;19.378;2023-04-30T11:29:05;4.50;;;1.90;;
58784;SDS011;44557;51.862;19.378;2023-04-30T11:31:06;8.60;;;4.60;;
58784;SDS011;44557;51.862;19.378;2023-04-30T11:33:07;6.80;;;2.60;;
58784;SDS011;44557;51.862;19.378;2023-04-30T11:35:09;6.00;;;2.10;;
58784;SDS011;44557;51.862;19.378;2023-04-30T11:37:17;5.60;;;2.00;;
58784;SDS011;44557;51.862;19.378;2023-04-30T11:41:39;3.90;;;1.80;;
58784;SDS011;44557;51.862;19.378;2023-04-30T11:43:40;5.40;;;2.40;;
58784;SDS011;44557;51.862;19.378;2023-04-30T11:45:41;3.40;;;2.00;;
58784;SDS011;44557;51.862;19.378;2023-04-30T11:47:43;5.70;;;2.00;;
58784;SDS011;44557;51.862;19.378;2023-04-30T11:49:45;5.60;;;3.00;;
58784;SDS011;44557;51.862;19.378;2023-04-30T11:51:50;4.00;;;2.10;;
58784;SDS011;44557;51.862;19.378;2023-04-30T11:53:51;5.40;;;2.30;;
58784;SDS011;44557;51.862;19.378;2023-04-30T11:55:53;8.20;;;2.20;;
58784;SDS011;44557;51.862;19.378;2023-04-30T11:57:55;5.60;;;2.20;;
58784;SDS011;44557;51.862;19.378;2023-04-30T12:00:06;5.70;;;2.10;;
58784;SDS011;44557;51.862;19.378;2023-04-30T12:02:13;6.10;;;2.00;;
58784;SDS011;44557;51.862;19.378;2023-04-30T12:04:15;4.40;;;2.00;;
58784;SDS011;44557;51.862;19.378;2023-04-30T12:06:23;5.70;;;2.10;;
58784;SDS011;44557;51.862;19.378;2023-04-30T12:08:25;5.50;;;1.90;;
58784;SDS011;44557;51.862;19.378;2023-04-30T12:10:26;8.40;;;2.80;;
58784;SDS011;44557;51.862;19.378;2023-04-30T12:12:28;10.50;;;4.80;;
58784;SDS011;44557;51.862;19.378;2023-04-30T12:14:30;6.80;;;2.20;;
58784;SDS011;44557;51.862;19.378;2023-04-30T12:16:43;8.80;;;2.60;;
58784;SDS011;44557;51.862;19.378;2023-04-30T12:18:45;6.10;;;2.20;;
58784;SDS011;44557;51.862;19.378;2023-04-30T12:20:47;5.30;;;2.10;;
58784;SDS011;44557;51.862;19.378;2023-04-30T12:22:48;5.50;;;2.00;;
58784;SDS011;44557;51.862;19.378;2023-04-30T12:24:49;5.50;;;2.30;;